createdAt,value
2022-11-19T00:00:03.980Z,7.65
2022-11-19T00:03:06.790Z,8.57
2022-11-19T00:06:11.865Z,7.12
2022-11-19T00:09:14.546Z,5.25
2022-11-19T00:12:52.685Z,8.45
2022-11-19T00:15:55.098Z,6.03
2022-11-19T00:18:57.823Z,6.57
2022-11-19T00:22:00.199Z,7.93
2022-11-19T00:25:03.699Z,8.18
2022-11-19T00:28:09.209Z,8.13
2022-11-19T00:31:13.831Z,10.25
2022-11-19T00:34:16.276Z,6.70
2022-11-19T00:37:19.141Z,9.95
2022-11-19T00:40:21.576Z,4.25
2022-11-19T00:43:43.784Z,7.80
2022-11-19T00:46:46.190Z,8.15
2022-11-19T00:49:48.920Z,11.52
2022-11-19T00:52:51.317Z,5.20
2022-11-19T00:55:54.491Z,4.43
2022-11-19T00:58:58.030Z,7.12
2022-11-19T01:02:00.846Z,7.37
2022-11-19T01:05:03.686Z,8.70
2022-11-19T01:08:06.528Z,5.03
2022-11-19T01:11:12.663Z,5.00
2022-11-19T01:14:15.362Z,6.95
2022-11-19T01:17:17.859Z,5.57
2022-11-19T01:20:20.715Z,9.30
2022-11-19T01:23:23.166Z,8.25
2022-11-19T01:26:26.865Z,8.10
2022-11-19T01:29:29.259Z,7.28
2022-11-19T01:32:32.010Z,10.85
2022-11-19T01:35:34.826Z,6.12
2022-11-19T01:38:37.691Z,9.07
2022-11-19T01:41:40.125Z,6.93
2022-11-19T01:44:56.893Z,8.02
2022-11-19T01:48:16.327Z,10.27
2022-11-19T01:51:27.187Z,11.05
2022-11-19T01:54:36.022Z,12.32
2022-11-19T01:57:40.471Z,8.20
2022-11-19T02:00:43.067Z,6.20
2022-11-19T02:03:47.329Z,9.77
2022-11-19T02:06:50.499Z,9.88
2022-11-19T02:09:53.286Z,7.00
2022-11-19T02:13:13.595Z,5.62
2022-11-19T02:16:34.237Z,6.35
2022-11-19T02:20:10.711Z,11.88
2022-11-19T02:23:50.954Z,8.70
2022-11-19T02:27:11.756Z,8.63
2022-11-19T02:30:17.410Z,10.23
2022-11-19T02:33:29.776Z,5.93
2022-11-19T02:36:57.392Z,7.18
2022-11-19T02:40:12.622Z,6.70
2022-11-19T02:43:21.866Z,9.45
2022-11-19T02:46:25.766Z,10.55
2022-11-19T02:49:32.453Z,3.70
2022-11-19T02:52:35.876Z,6.55
2022-11-19T02:55:39.431Z,16.65
2022-11-19T02:59:13.335Z,3.92
2022-11-19T03:02:36.939Z,5.07
2022-11-19T03:05:44.245Z,7.50
2022-11-19T03:08:47.853Z,12.27
2022-11-19T03:11:57.550Z,5.97
2022-11-19T03:15:33.981Z,9.65
2022-11-19T03:18:50.731Z,8.40
2022-11-19T03:22:17.166Z,10.80
2022-11-19T03:25:40.651Z,5.50
2022-11-19T03:28:46.301Z,9.15
2022-11-19T03:31:53.274Z,8.85
2022-11-19T03:35:01.867Z,4.40
2022-11-19T03:38:08.647Z,7.68
2022-11-19T03:41:15.279Z,6.37
2022-11-19T03:44:38.991Z,5.12
2022-11-19T03:47:43.338Z,6.22
2022-11-19T03:51:08.874Z,11.65
2022-11-19T03:54:11.732Z,6.70
2022-11-19T03:57:18.309Z,9.73
2022-11-19T04:00:21.121Z,11.10
2022-11-19T04:03:23.834Z,10.32
2022-11-19T04:06:26.389Z,6.40
2022-11-19T04:09:29.146Z,8.45
2022-11-19T04:12:31.634Z,11.07
2022-11-19T04:15:34.386Z,8.18
2022-11-19T04:18:36.958Z,5.90
2022-11-19T04:21:40.032Z,7.72
2022-11-19T04:24:42.499Z,5.20
2022-11-19T04:27:48.013Z,6.60
2022-11-19T04:30:50.427Z,8.20
2022-11-19T04:33:53.072Z,4.93
2022-11-19T04:36:55.600Z,9.40
2022-11-19T04:39:58.286Z,7.20
2022-11-19T04:43:01.163Z,8.82
2022-11-19T04:46:03.949Z,7.47
2022-11-19T04:49:06.428Z,8.25
2022-11-19T04:52:09.213Z,7.20
2022-11-19T04:55:11.698Z,6.25
2022-11-19T04:58:14.467Z,10.13
2022-11-19T05:01:17.031Z,8.27
2022-11-19T05:04:19.819Z,14.13
2022-11-19T05:07:22.388Z,10.75
2022-11-19T05:10:25.238Z,15.10
2022-11-19T05:13:27.728Z,8.30
2022-11-19T05:16:30.472Z,7.05
2022-11-19T05:19:33.229Z,11.38
2022-11-19T05:22:35.894Z,7.32
2022-11-19T05:25:38.250Z,8.60
2022-11-19T05:28:40.959Z,13.82
2022-11-19T05:31:43.977Z,9.60
2022-11-19T05:34:46.678Z,8.65
2022-11-19T05:37:50.061Z,9.90
2022-11-19T05:40:52.701Z,8.90
2022-11-19T05:43:55.775Z,9.70
2022-11-19T05:46:59.843Z,10.32
2022-11-19T05:50:02.582Z,9.35
2022-11-19T05:53:05.355Z,14.02
2022-11-19T05:56:07.922Z,9.85
2022-11-19T05:59:10.762Z,13.32
2022-11-19T06:02:13.315Z,6.72
2022-11-19T06:05:16.131Z,15.93
2022-11-19T06:08:18.990Z,7.18
2022-11-19T06:11:40.126Z,13.85
2022-11-19T06:14:42.529Z,9.18
2022-11-19T06:17:45.295Z,12.30
2022-11-19T06:20:47.854Z,7.00
2022-11-19T06:23:50.669Z,10.80
2022-11-19T06:26:53.206Z,13.30
2022-11-19T06:29:56.561Z,8.82
2022-11-19T06:32:59.335Z,11.10
2022-11-19T06:36:05.163Z,12.40
2022-11-19T06:39:07.819Z,7.80
2022-11-19T06:42:29.619Z,14.02
2022-11-19T06:45:32.108Z,13.23
2022-11-19T06:48:34.984Z,10.13
2022-11-19T06:51:37.480Z,10.38
2022-11-19T06:54:42.944Z,17.00
2022-11-19T06:57:45.719Z,12.18
2022-11-19T07:00:48.492Z,10.25
2022-11-19T07:03:50.886Z,6.85
2022-11-19T07:06:53.595Z,12.80
2022-11-19T07:09:56.066Z,11.80
2022-11-19T07:12:58.750Z,13.13
2022-11-19T07:16:02.841Z,11.73
2022-11-19T07:19:07.801Z,7.87
2022-11-19T07:22:10.289Z,15.18
2022-11-19T07:25:13.237Z,10.18
2022-11-19T07:28:15.698Z,8.68
2022-11-19T07:31:18.785Z,15.48
2022-11-19T07:34:21.337Z,13.85
2022-11-19T07:37:24.039Z,7.68
2022-11-19T07:40:26.615Z,11.32
2022-11-19T07:43:29.317Z,13.88
2022-11-19T07:46:31.769Z,14.23
2022-11-19T07:49:34.522Z,16.45
2022-11-19T07:52:37.148Z,17.73
2022-11-19T07:55:39.986Z,17.02
2022-11-19T07:58:42.849Z,12.43
2022-11-19T08:01:45.634Z,13.52
2022-11-19T08:04:48.350Z,12.63
2022-11-19T08:07:50.795Z,14.23
2022-11-19T08:10:53.449Z,15.40
2022-11-19T08:13:56.299Z,17.12
2022-11-19T08:17:17.377Z,15.90
2022-11-19T08:20:19.924Z,14.85
2022-11-19T08:23:24.185Z,14.50
2022-11-19T08:26:27.329Z,15.82
2022-11-19T08:29:30.110Z,16.52
2022-11-19T08:32:35.765Z,13.82
2022-11-19T08:35:38.517Z,16.12
2022-11-19T08:38:41.079Z,25.70
2022-11-19T08:42:02.490Z,9.25
2022-11-19T08:45:05.582Z,13.95
2022-11-19T08:48:13.395Z,12.18
2022-11-19T08:51:16.590Z,15.05
2022-11-19T08:54:19.790Z,21.77
2022-11-19T08:57:22.515Z,14.30
2022-11-19T09:00:25.281Z,18.58
2022-11-19T09:03:27.683Z,16.23
2022-11-19T09:06:30.518Z,13.93
2022-11-19T09:09:33.194Z,15.35
2022-11-19T09:12:36.275Z,15.75
2022-11-19T09:15:38.746Z,17.15
2022-11-19T09:18:42.340Z,17.42
2022-11-19T09:21:45.006Z,11.15
2022-11-19T09:24:47.871Z,12.07
2022-11-19T09:27:50.419Z,13.57
2022-11-19T09:31:00.618Z,8.25
2022-11-19T09:34:03.903Z,15.88
2022-11-19T09:37:10.427Z,12.20
2022-11-19T09:40:20.592Z,10.43
2022-11-19T09:44:01.556Z,14.23
2022-11-19T09:47:22.357Z,14.18
2022-11-19T09:50:35.424Z,14.18
2022-11-19T09:53:50.450Z,13.15
2022-11-19T09:56:59.199Z,13.85
2022-11-19T10:00:09.131Z,13.62
2022-11-19T10:03:28.657Z,13.62
2022-11-19T10:07:00.525Z,16.58
2022-11-19T10:10:12.623Z,15.95
2022-11-19T10:13:44.410Z,21.35
2022-11-19T10:16:58.740Z,13.88
2022-11-19T10:20:30.536Z,15.05
2022-11-19T10:23:48.738Z,13.60
2022-11-19T10:27:05.751Z,16.17
2022-11-19T10:30:19.511Z,14.27
2022-11-19T10:33:38.567Z,14.27
2022-11-19T10:36:49.913Z,11.50
2022-11-19T10:40:01.683Z,11.07
2022-11-19T10:43:27.245Z,12.37
2022-11-19T10:46:30.196Z,10.40
2022-11-19T10:49:38.903Z,13.52
2022-11-19T10:52:45.573Z,15.35
2022-11-19T10:55:54.665Z,11.75
2022-11-19T10:59:06.992Z,14.02
2022-11-19T11:02:28.115Z,14.18
2022-11-19T11:05:32.288Z,19.80
2022-11-19T11:08:48.496Z,19.42
2022-11-19T11:12:10.095Z,17.52
2022-11-19T11:15:25.455Z,16.08
2022-11-19T11:18:31.472Z,13.68
2022-11-19T11:21:42.992Z,15.02
2022-11-19T11:24:45.820Z,17.02
2022-11-19T11:28:11.357Z,16.77
2022-11-19T11:31:28.855Z,17.90
2022-11-19T11:34:43.750Z,16.02
2022-11-19T11:37:48.106Z,13.73
2022-11-19T11:44:32.665Z,14.02
2022-11-19T11:47:38.397Z,14.40
2022-11-19T11:50:45.724Z,11.95
2022-11-19T11:54:03.588Z,17.40
2022-11-19T11:57:16.659Z,20.52
2022-11-19T12:00:38.962Z,16.77
2022-11-19T12:03:55.105Z,18.02
2022-11-19T12:07:22.160Z,20.70
2022-11-19T12:10:49.610Z,13.48
2022-11-19T12:14:10.911Z,14.75
2022-11-19T12:18:03.284Z,16.58
2022-11-19T12:21:11.640Z,14.55
2022-11-19T12:24:32.348Z,15.93
2022-11-19T12:27:49.584Z,18.10
2022-11-19T12:31:05.378Z,17.90
2022-11-19T12:34:27.642Z,14.93
2022-11-19T12:38:02.739Z,14.60
2022-11-19T12:41:25.241Z,14.05
2022-11-19T12:44:36.831Z,21.40
2022-11-19T12:48:17.676Z,14.68
2022-11-19T12:52:16.341Z,17.23
2022-11-19T12:55:25.289Z,14.82
2022-11-19T12:58:50.951Z,13.20
2022-11-19T13:01:55.320Z,17.00
2022-11-19T13:05:02.516Z,18.20
2022-11-19T13:08:13.631Z,17.35
2022-11-19T13:11:36.445Z,18.50
2022-11-19T13:14:54.695Z,14.43
2022-11-19T13:18:02.304Z,18.35
2022-11-19T13:21:18.991Z,15.73
2022-11-19T13:24:43.346Z,20.45
2022-11-19T13:27:48.695Z,21.42
2022-11-19T13:30:55.275Z,16.58
2022-11-19T13:34:08.371Z,16.52
2022-11-19T13:37:16.070Z,17.45
2022-11-19T13:40:25.682Z,17.77
2022-11-19T13:43:47.146Z,18.20
2022-11-19T13:46:59.786Z,24.70
2022-11-19T13:50:08.013Z,16.87
2022-11-19T13:53:28.905Z,19.83
2022-11-19T13:56:49.698Z,23.17
2022-11-19T14:00:07.658Z,19.40
2022-11-19T14:03:29.292Z,17.10
2022-11-19T14:06:53.678Z,16.83
2022-11-19T14:10:27.268Z,17.27
2022-11-19T14:13:47.915Z,15.77
2022-11-19T14:17:16.633Z,19.87
2022-11-19T14:20:58.873Z,15.88
2022-11-19T14:24:19.733Z,17.15
2022-11-19T14:27:29.294Z,19.27
2022-11-19T14:31:01.232Z,16.65
2022-11-19T14:34:04.419Z,18.67
2022-11-19T14:37:22.136Z,15.57
2022-11-19T14:40:31.791Z,17.70
2022-11-19T14:44:08.159Z,24.60
2022-11-19T14:47:24.487Z,24.45
2022-11-19T14:50:31.126Z,17.77
2022-11-19T14:53:37.746Z,15.27
2022-11-19T14:56:42.354Z,14.68
2022-11-19T14:59:50.000Z,14.07
2022-11-19T15:02:54.174Z,14.95
2022-11-19T15:06:06.212Z,15.57
2022-11-19T15:09:10.798Z,11.93
2022-11-19T15:12:13.844Z,17.62
2022-11-19T15:15:19.378Z,18.48
2022-11-19T15:18:34.066Z,10.98
2022-11-19T15:21:48.109Z,10.68
2022-11-19T15:25:00.706Z,15.88
2022-11-19T15:28:30.764Z,15.23
2022-11-19T15:32:12.469Z,17.45
2022-11-19T15:35:53.653Z,12.02
2022-11-19T15:39:24.640Z,12.02
2022-11-19T15:42:34.569Z,11.88
2022-11-19T15:45:43.835Z,8.60
2022-11-19T15:49:12.139Z,14.82
2022-11-19T15:52:33.421Z,13.20
2022-11-19T15:55:36.776Z,14.95
2022-11-19T15:58:44.951Z,12.43
2022-11-19T16:01:59.473Z,11.20
2022-11-19T16:05:02.529Z,9.52
2022-11-19T16:08:08.679Z,11.00
2022-11-19T16:11:36.824Z,12.82
2022-11-19T16:14:58.087Z,12.85
2022-11-19T16:18:00.874Z,7.75
2022-11-19T16:21:04.457Z,13.57
2022-11-19T16:24:32.225Z,16.50
2022-11-19T16:27:40.976Z,12.52
2022-11-19T16:30:46.446Z,13.68
2022-11-19T16:33:54.878Z,15.93
2022-11-19T16:36:57.798Z,10.25
2022-11-19T16:40:00.787Z,14.70
2022-11-19T16:43:03.564Z,13.52
2022-11-19T16:46:06.731Z,12.20
2022-11-19T16:49:30.153Z,12.05
2022-11-19T16:52:32.570Z,9.70
2022-11-19T16:55:42.425Z,9.98
2022-11-19T16:58:49.826Z,14.55
2022-11-19T17:01:59.569Z,8.45
2022-11-19T17:05:12.334Z,18.37
2022-11-19T17:08:27.500Z,12.37
2022-11-19T17:12:06.635Z,11.35
2022-11-19T17:15:38.940Z,11.45
2022-11-19T17:18:42.479Z,10.05
2022-11-19T17:21:58.117Z,8.95
2022-11-19T17:25:04.743Z,10.15
2022-11-19T17:28:16.400Z,10.60
2022-11-19T17:31:27.279Z,11.25
2022-11-19T17:34:41.328Z,10.90
2022-11-19T17:37:43.773Z,9.20
2022-11-19T17:41:05.027Z,13.15
2022-11-19T17:44:34.539Z,13.15
2022-11-19T17:47:37.299Z,11.02
2022-11-19T17:50:39.786Z,17.50
2022-11-19T17:53:43.290Z,10.10
2022-11-19T17:56:45.848Z,8.63
2022-11-19T17:59:48.673Z,9.02
2022-11-19T18:02:51.124Z,14.87
2022-11-19T18:05:53.902Z,11.00
2022-11-19T18:08:57.114Z,10.48
2022-11-19T18:11:59.942Z,9.77
2022-11-19T18:15:02.493Z,12.45
2022-11-19T18:18:05.589Z,14.40
2022-11-19T18:21:12.511Z,10.48
2022-11-19T18:24:15.332Z,9.98
2022-11-19T18:27:17.801Z,10.82
2022-11-19T18:30:20.693Z,10.43
2022-11-19T18:33:23.122Z,19.87
2022-11-19T18:36:26.264Z,13.82
2022-11-19T18:39:29.134Z,8.23
2022-11-19T18:42:31.882Z,13.73
2022-11-19T18:45:34.419Z,16.23
2022-11-19T18:48:37.222Z,11.43
2022-11-19T18:51:40.019Z,11.98
2022-11-19T18:54:43.028Z,7.00
2022-11-19T18:57:45.448Z,9.63
2022-11-19T19:00:48.222Z,11.45
2022-11-19T19:03:52.491Z,15.63
2022-11-19T19:06:55.820Z,12.90
2022-11-19T19:09:58.704Z,5.65
2022-11-19T19:13:01.459Z,11.65
2022-11-19T19:16:04.114Z,8.85
2022-11-19T19:19:06.876Z,9.70
2022-11-19T19:22:09.938Z,9.90
2022-11-19T19:25:13.116Z,13.02
2022-11-19T19:28:15.611Z,10.55
2022-11-19T19:31:19.678Z,15.30
2022-11-19T19:34:22.423Z,10.98
2022-11-19T19:37:25.250Z,8.80
2022-11-19T19:40:27.828Z,16.42
2022-11-19T19:43:31.028Z,8.93
2022-11-19T19:46:33.707Z,13.52
2022-11-19T19:49:39.101Z,10.45
2022-11-19T19:52:41.839Z,10.73
2022-11-19T19:55:44.631Z,14.80
2022-11-19T19:58:48.285Z,8.52
2022-11-19T20:01:51.604Z,12.27
2022-11-19T20:04:54.436Z,7.15
2022-11-19T20:07:56.895Z,12.30
2022-11-19T20:11:05.877Z,10.93
2022-11-19T20:14:09.908Z,8.70
2022-11-19T20:17:12.811Z,11.20
2022-11-19T20:20:15.400Z,13.15
2022-11-19T20:23:18.390Z,9.50
2022-11-19T20:26:23.840Z,12.52
2022-11-19T20:29:26.617Z,13.20
2022-11-19T20:32:29.066Z,9.63
2022-11-19T20:35:31.801Z,13.27
2022-11-19T20:38:37.413Z,11.55
2022-11-19T20:41:58.883Z,11.32
2022-11-19T20:45:01.903Z,8.68
2022-11-19T20:48:05.563Z,6.85
2022-11-19T20:51:09.043Z,7.70
2022-11-19T20:54:12.458Z,8.70
2022-11-19T20:57:15.095Z,10.18
2022-11-19T21:00:18.574Z,13.50
2022-11-19T21:03:21.156Z,10.45
2022-11-19T21:06:24.514Z,10.85
2022-11-19T21:09:27.020Z,7.70
2022-11-19T21:12:29.712Z,10.02
2022-11-19T21:15:36.003Z,11.38
2022-11-19T21:18:42.575Z,11.00
2022-11-19T21:21:45.650Z,5.95
2022-11-19T21:24:48.509Z,15.98
2022-11-19T21:27:50.996Z,13.13
2022-11-19T21:30:53.738Z,9.73
2022-11-19T21:33:56.197Z,11.38
2022-11-19T21:36:59.052Z,11.25
2022-11-19T21:40:01.565Z,5.57
2022-11-19T21:43:05.192Z,9.60
2022-11-19T21:46:07.842Z,10.45
2022-11-19T21:49:10.643Z,6.28
2022-11-19T21:52:13.130Z,9.85
2022-11-19T21:55:15.903Z,5.93
2022-11-19T21:58:18.434Z,6.68
2022-11-19T22:01:21.511Z,6.95
2022-11-19T22:04:24.343Z,9.52
2022-11-19T22:07:26.866Z,7.15
2022-11-19T22:10:30.182Z,10.48
2022-11-19T22:13:32.607Z,6.20
2022-11-19T22:16:37.635Z,10.10
2022-11-19T22:19:40.030Z,7.00
2022-11-19T22:22:45.167Z,6.68
2022-11-19T22:25:47.630Z,8.48
2022-11-19T22:28:50.397Z,7.95
2022-11-19T22:31:52.879Z,7.15
2022-11-19T22:34:55.607Z,9.45
2022-11-19T22:37:58.051Z,4.75
2022-11-19T22:41:08.604Z,9.32
2022-11-19T22:44:11.063Z,7.95
2022-11-19T22:47:14.623Z,13.57
2022-11-19T22:50:17.171Z,7.53
2022-11-19T22:53:19.899Z,6.35
2022-11-19T22:56:25.102Z,8.05
2022-11-19T22:59:27.986Z,5.30
2022-11-19T23:02:30.451Z,6.95
2022-11-19T23:05:37.128Z,5.87
2022-11-19T23:08:40.204Z,14.93
2022-11-19T23:12:01.843Z,7.07
2022-11-19T23:15:04.877Z,6.70
2022-11-19T23:18:07.677Z,5.22
2022-11-19T23:21:36.652Z,5.18
2022-11-19T23:24:39.442Z,7.07
2022-11-19T23:27:41.915Z,4.62
2022-11-19T23:30:44.647Z,11.65
2022-11-19T23:33:48.012Z,7.97
2022-11-19T23:36:50.765Z,5.93
2022-11-19T23:39:53.243Z,11.15
2022-11-19T23:42:56.135Z,5.15
2022-11-19T23:46:09.200Z,6.05
2022-11-19T23:49:12.329Z,12.63
2022-11-19T23:52:15.376Z,10.02
2022-11-19T23:55:18.261Z,8.05
2022-11-19T23:58:20.738Z,7.60
